createdAt,value
2023-04-02T00:02:22.141Z,74.75
2023-04-02T00:07:33.811Z,74.90
2023-04-02T00:12:36.765Z,74.93
2023-04-02T00:17:40.232Z,74.85
2023-04-02T00:22:44.880Z,74.75
2023-04-02T00:27:48.390Z,75.30
2023-04-02T00:32:51.880Z,75.06
2023-04-02T00:37:56.589Z,75.02
2023-04-02T00:43:01.227Z,74.76
2023-04-02T00:48:32.891Z,74.54
2023-04-02T00:53:36.267Z,74.88
2023-04-02T00:58:40.099Z,74.96
2023-04-02T01:03:44.034Z,74.88
2023-04-02T01:09:09.347Z,74.76
2023-04-02T01:14:43.311Z,74.88
2023-04-02T01:20:09.119Z,74.58
2023-04-02T01:25:22.724Z,74.73
2023-04-02T01:30:26.257Z,75.07
2023-04-02T01:35:36.409Z,75.27
2023-04-02T01:41:01.668Z,75.16
2023-04-02T01:46:44.915Z,75.34
2023-04-02T01:51:55.172Z,75.36
2023-04-02T01:56:58.254Z,75.69
2023-04-02T02:02:12.493Z,75.78
2023-04-02T02:07:19.547Z,75.78
2023-04-02T02:12:23.290Z,75.76
2023-04-02T02:17:34.463Z,75.79
2023-04-02T02:22:40.643Z,75.45
2023-04-02T02:28:06.060Z,75.41
2023-04-02T02:33:34.378Z,75.37
2023-04-02T02:38:54.411Z,75.56
2023-04-02T02:44:11.591Z,75.60
2023-04-02T02:49:24.807Z,75.58
2023-04-02T02:54:30.702Z,75.58
2023-04-02T02:59:34.108Z,75.62
2023-04-02T03:04:38.492Z,75.83
2023-04-02T03:10:21.143Z,75.60
2023-04-02T03:16:12.656Z,75.27
2023-04-02T03:21:25.839Z,75.39
2023-04-02T03:26:40.859Z,75.52
2023-04-02T03:32:12.470Z,75.59
2023-04-02T03:37:28.944Z,75.33
2023-04-02T03:43:25.460Z,75.29
2023-04-02T03:48:39.660Z,75.33
2023-04-02T03:53:44.573Z,75.28
2023-04-02T03:58:55.430Z,75.49
2023-04-02T04:04:08.914Z,75.10
2023-04-02T04:09:19.380Z,74.99
2023-04-02T04:14:33.245Z,74.85
2023-04-02T04:19:46.409Z,74.70
2023-04-02T04:24:49.418Z,75.06
2023-04-02T04:30:14.851Z,74.76
2023-04-02T04:35:45.566Z,74.60
2023-04-02T04:40:54.287Z,74.52
2023-04-02T04:46:06.236Z,74.52
2023-04-02T04:51:19.246Z,74.57
2023-04-02T04:56:28.541Z,74.32
2023-04-02T05:01:45.675Z,74.65
2023-04-02T05:07:09.364Z,74.65
2023-04-02T05:12:42.170Z,74.82
2023-04-02T05:18:00.343Z,74.42
2023-04-02T05:23:19.938Z,74.56
2023-04-02T05:28:36.153Z,74.50
2023-04-02T05:33:40.262Z,74.85
2023-04-02T05:38:48.612Z,74.17
2023-04-02T05:43:58.983Z,74.05
2023-04-02T05:49:08.803Z,73.91
2023-04-02T05:54:29.209Z,73.74
2023-04-02T05:59:49.218Z,73.38
2023-04-02T06:05:12.136Z,73.52
2023-04-02T06:10:24.789Z,73.50
2023-04-02T06:15:28.002Z,73.76
2023-04-02T06:20:31.077Z,73.58
2023-04-02T06:25:40.042Z,73.55
2023-04-02T06:30:43.603Z,73.82
2023-04-02T06:35:47.832Z,74.45
2023-04-02T06:41:02.994Z,74.16
2023-04-02T06:46:43.728Z,73.84
2023-04-02T06:51:48.546Z,73.60
2023-04-02T06:56:53.758Z,73.47
2023-04-02T07:02:06.556Z,73.56
2023-04-02T07:07:09.559Z,72.96
2023-04-02T07:12:14.029Z,72.81
2023-04-02T07:17:18.392Z,72.61
2023-04-02T07:22:22.274Z,72.89
2023-04-02T07:27:25.081Z,72.48
2023-04-02T07:32:28.382Z,72.24
2023-04-02T07:37:31.930Z,72.18
2023-04-02T07:42:34.888Z,72.04
2023-04-02T07:47:37.742Z,72.28
2023-04-02T07:52:44.498Z,72.70
2023-04-02T07:57:51.282Z,72.55
2023-04-02T08:02:54.303Z,72.42
2023-04-02T08:07:57.400Z,72.62
2023-04-02T08:13:00.385Z,72.59
2023-04-02T08:18:03.279Z,72.53
2023-04-02T08:23:15.458Z,72.36
2023-04-02T08:28:18.508Z,72.50
2023-04-02T08:33:21.461Z,73.09
2023-04-02T08:38:25.454Z,73.77
2023-04-02T08:43:53.275Z,74.04
2023-04-02T08:49:01.267Z,74.25
2023-04-02T08:54:29.404Z,73.97
2023-04-02T08:59:38.951Z,74.50
2023-04-02T09:04:42.383Z,74.59
2023-04-02T09:09:49.995Z,74.54
2023-04-02T09:15:06.782Z,74.44
2023-04-02T09:20:21.273Z,74.62
2023-04-02T09:25:28.279Z,74.47
2023-04-02T09:31:00.269Z,74.16
2023-04-02T09:36:03.737Z,74.79
2023-04-02T09:41:18.686Z,74.57
2023-04-02T09:46:26.045Z,74.01
2023-04-02T09:51:35.211Z,74.53
2023-04-02T09:56:40.096Z,74.24
2023-04-02T10:02:07.499Z,73.50
2023-04-02T10:07:41.559Z,72.15
2023-04-02T10:13:02.500Z,72.13
2023-04-02T10:18:21.398Z,72.13
2023-04-02T10:23:29.484Z,72.53
2023-04-02T10:29:13.310Z,72.58
2023-04-02T10:34:36.799Z,72.75
2023-04-02T10:39:46.997Z,72.83
2023-04-02T10:45:04.839Z,72.95
2023-04-02T10:50:50.165Z,72.81
2023-04-02T10:55:58.097Z,73.32
2023-04-02T11:01:25.974Z,73.44
2023-04-02T11:06:37.431Z,73.43
2023-04-02T11:11:44.747Z,72.21
2023-04-02T11:16:53.267Z,70.93
2023-04-02T11:22:31.525Z,71.79
2023-04-02T11:27:34.482Z,72.13
2023-04-02T11:32:49.364Z,71.94
2023-04-02T11:37:54.506Z,70.81
2023-04-02T11:43:32.766Z,70.77
2023-04-02T11:48:36.912Z,70.04
2023-04-02T11:53:42.902Z,70.19
2023-04-02T11:59:38.318Z,70.09
2023-04-02T12:05:04.972Z,69.92
2023-04-02T12:10:22.843Z,70.00
2023-04-02T12:15:49.016Z,70.21
2023-04-02T12:20:55.986Z,69.69
2023-04-02T12:26:03.486Z,69.79
2023-04-02T12:31:09.422Z,69.69
2023-04-02T12:36:14.245Z,69.63
2023-04-02T12:41:33.419Z,69.73
2023-04-02T12:46:36.404Z,69.74
2023-04-02T12:51:39.546Z,70.35
2023-04-02T12:56:42.374Z,70.49
2023-04-02T13:01:57.961Z,70.17
2023-04-02T13:07:02.134Z,70.55
2023-04-02T13:12:06.025Z,70.21
2023-04-02T13:17:51.196Z,70.78
2023-04-02T13:22:54.198Z,70.60
2023-04-02T13:27:57.574Z,70.49
2023-04-02T13:33:00.871Z,70.76
2023-04-02T13:38:05.725Z,71.72
2023-04-02T13:43:18.297Z,71.91
2023-04-02T13:48:24.662Z,72.25
2023-04-02T13:53:34.062Z,72.66
2023-04-02T13:58:36.890Z,72.76
2023-04-02T14:03:40.857Z,72.83
2023-04-02T14:09:24.903Z,72.94
2023-04-02T14:15:03.996Z,73.41
2023-04-02T14:20:40.783Z,73.28
2023-04-02T14:26:14.390Z,73.38
2023-04-02T14:31:44.595Z,73.83
2023-04-02T14:37:04.959Z,73.56
2023-04-02T14:42:16.712Z,73.48
2023-04-02T14:47:25.991Z,73.29
2023-04-02T14:52:33.483Z,73.82
2023-04-02T14:57:44.768Z,74.30
2023-04-02T15:02:58.430Z,74.13
2023-04-02T15:08:35.220Z,74.12
2023-04-02T15:13:49.937Z,74.25
2023-04-02T15:18:56.423Z,74.11
2023-04-02T15:24:37.527Z,74.11
2023-04-02T15:30:07.608Z,74.23
2023-04-02T15:35:31.623Z,74.80
2023-04-02T15:40:49.687Z,74.34
2023-04-02T15:46:06.395Z,74.57
2023-04-02T15:51:37.327Z,74.61
2023-04-02T15:56:52.736Z,75.06
2023-04-02T16:02:02.497Z,74.90
2023-04-02T16:07:57.472Z,75.29
2023-04-02T16:13:00.633Z,75.67
2023-04-02T16:18:12.502Z,75.56
2023-04-02T16:23:21.083Z,75.57
2023-04-02T16:28:31.191Z,75.44
2023-04-02T16:34:02.539Z,75.15
2023-04-02T16:39:36.004Z,75.42
2023-04-02T16:45:12.595Z,75.61
2023-04-02T16:50:47.436Z,75.48
2023-04-02T16:56:40.887Z,75.95
2023-04-02T17:02:03.180Z,75.93
2023-04-02T17:08:01.837Z,75.98
2023-04-02T17:13:37.568Z,76.38
2023-04-02T17:18:43.519Z,76.06
2023-04-02T17:24:00.521Z,75.71
2023-04-02T17:29:09.436Z,75.99
2023-04-02T17:34:15.747Z,76.40
2023-04-02T17:39:43.545Z,75.76
2023-04-02T17:45:03.597Z,75.62
2023-04-02T17:50:12.440Z,75.41
2023-04-02T17:55:47.755Z,75.73
2023-04-02T18:00:58.100Z,75.89
2023-04-02T18:06:09.416Z,75.89
2023-04-02T18:11:43.507Z,75.81
2023-04-02T18:17:12.633Z,75.97
2023-04-02T18:22:49.564Z,75.91
2023-04-02T18:28:14.939Z,75.82
2023-04-02T18:33:43.256Z,75.62
2023-04-02T18:39:21.584Z,75.42
2023-04-02T18:44:31.332Z,75.72
2023-04-02T18:49:48.497Z,75.68
2023-04-02T18:55:07.310Z,76.34
2023-04-02T19:00:45.110Z,76.73
2023-04-02T19:06:05.630Z,76.42
2023-04-02T19:11:28.416Z,76.27
2023-04-02T19:16:43.098Z,76.54
2023-04-02T19:21:51.625Z,76.75
2023-04-02T19:27:08.172Z,76.49
2023-04-02T19:32:36.813Z,76.50
2023-04-02T19:38:03.010Z,76.41
2023-04-02T19:43:09.646Z,75.85
2023-04-02T19:48:26.322Z,76.19
2023-04-02T19:53:29.155Z,76.68
2023-04-02T19:58:36.059Z,76.64
2023-04-02T20:03:38.956Z,76.69
2023-04-02T20:08:41.982Z,76.86
2023-04-02T20:13:44.837Z,76.51
2023-04-02T20:18:48.440Z,76.38
2023-04-02T20:23:55.473Z,75.97
2023-04-02T20:28:58.782Z,76.01
2023-04-02T20:34:03.861Z,76.25
2023-04-02T20:39:09.174Z,76.39
2023-04-02T20:44:13.030Z,76.18
2023-04-02T20:49:15.865Z,76.28
2023-04-02T20:54:18.734Z,76.45
2023-04-02T20:59:21.570Z,76.31
2023-04-02T21:04:24.619Z,76.37
2023-04-02T21:09:27.485Z,76.23
2023-04-02T21:14:35.769Z,76.23
2023-04-02T21:19:38.601Z,76.33
2023-04-02T21:24:41.426Z,76.22
2023-04-02T21:29:44.246Z,76.15
2023-04-02T21:34:47.082Z,76.10
2023-04-02T21:39:49.970Z,75.89
2023-04-02T21:44:53.374Z,75.55
2023-04-02T21:49:56.178Z,75.50
2023-04-02T21:54:59.014Z,75.28
2023-04-02T22:00:01.841Z,75.29
2023-04-02T22:05:05.599Z,75.25
2023-04-02T22:10:08.805Z,75.43
2023-04-02T22:15:11.947Z,75.79
2023-04-02T22:20:15.275Z,76.09
2023-04-02T22:25:18.182Z,75.99
2023-04-02T22:30:20.987Z,76.27
2023-04-02T22:35:23.963Z,76.49
2023-04-02T22:40:27.071Z,76.68
2023-04-02T22:45:29.922Z,76.67
2023-04-02T22:50:32.862Z,76.94
2023-04-02T22:55:35.973Z,76.77
2023-04-02T23:00:39.370Z,76.52
2023-04-02T23:05:42.681Z,76.66
2023-04-02T23:10:45.499Z,76.78
2023-04-02T23:15:48.380Z,76.43
2023-04-02T23:20:51.210Z,76.50
2023-04-02T23:26:13.775Z,76.28
2023-04-02T23:31:20.544Z,76.33
2023-04-02T23:36:30.443Z,76.27
2023-04-02T23:41:33.291Z,76.10
2023-04-02T23:46:36.884Z,76.02
2023-04-02T23:51:40.728Z,76.02
2023-04-02T23:56:43.627Z,76.00
